Time;durP1;ratioP1;P1;durP2;ratioP2;P2;SDS_P1;SDS_P2;PMS_P1;PMS_P2;Temp;Humidity;BMP_temperature;BMP_pressure;BME280_temperature;BME280_humidity;BME280_pressure;Samples;Min_cycle;Max_cycle;Signal;HPM_P1;HPM_P2
2022/10/25 00:02:01;;;;;;;6.97;1.60;;;15.30;99.90;;;;;;21083691;28;20209;-71
2022/10/25 00:12:04;;;;;;;5.23;1.53;;;15.30;99.90;;;;;;21082568;28;20717;-74
2022/10/25 00:22:06;;;;;;;2.57;1.10;;;15.30;99.90;;;;;;21080302;28;20203;-74
2022/10/25 00:32:08;;;;;;;2.90;1.03;;;15.30;99.90;;;;;;21079848;28;20272;-72
2022/10/25 00:42:14;;;;;;;4.53;0.97;;;15.20;99.90;;;;;;21080719;28;20255;-70
2022/10/25 00:52:16;;;;;;;3.00;1.27;;;15.20;99.90;;;;;;21078996;28;20709;-72
2022/10/25 01:02:20;;;;;;;4.10;1.07;;;15.20;99.90;;;;;;21078155;28;20207;-72
2022/10/25 01:12:22;;;;;;;1.83;1.10;;;15.20;99.90;;;;;;21078345;28;20237;-72
2022/10/25 01:22:34;;;;;;;2.40;0.90;;;15.20;99.90;;;;;;21076134;28;20210;-72
2022/10/25 01:32:44;;;;;;;2.03;0.90;;;15.20;99.90;;;;;;21077099;28;20230;-72
2022/10/25 01:43:05;;;;;;;2.37;0.93;;;15.10;99.70;;;;;;21074882;28;20236;-74
2022/10/25 01:53:07;;;;;;;5.90;0.93;;;15.10;99.70;;;;;;21074153;28;20230;-70
2022/10/25 02:03:17;;;;;;;1.90;1.07;;;15.00;99.60;;;;;;21073692;28;20308;-70
2022/10/25 02:13:50;;;;;;;1.50;0.90;;;15.00;99.60;;;;;;21073172;28;20230;-71
2022/10/25 02:23:54;;;;;;;2.97;0.80;;;15.00;99.50;;;;;;21072575;28;20219;-70
2022/10/25 02:33:55;;;;;;;3.13;1.03;;;15.00;99.10;;;;;;21078918;28;20594;-71
2022/10/25 02:43:57;;;;;;;5.60;1.10;;;15.00;99.40;;;;;;21089583;28;20198;-71
2022/10/25 02:53:58;;;;;;;1.27;1.00;;;15.00;99.40;;;;;;21088600;28;20240;-72
2022/10/25 03:04:00;;;;;;;2.90;1.03;;;15.00;99.40;;;;;;21088031;28;20202;-72
2022/10/25 03:14:02;;;;;;;3.33;1.10;;;14.90;99.50;;;;;;21087164;28;20230;-72
2022/10/25 03:24:04;;;;;;;3.13;1.00;;;14.90;99.60;;;;;;21086126;28;20206;-72
2022/10/25 03:34:06;;;;;;;3.60;1.60;;;14.80;99.70;;;;;;21085112;28;20234;-72
2022/10/25 03:44:08;;;;;;;1.67;1.10;;;14.80;99.80;;;;;;21084997;28;20572;-72
2022/10/25 03:54:09;;;;;;;4.90;1.30;;;14.80;99.90;;;;;;21085608;28;20630;-72
2022/10/25 04:04:11;;;;;;;2.50;1.20;;;14.80;99.90;;;;;;21125262;28;20202;-73
2022/10/25 04:14:13;;;;;;;3.77;1.20;;;14.70;99.90;;;;;;21106207;28;20241;-73
2022/10/25 04:24:14;;;;;;;7.33;1.60;;;14.70;99.90;;;;;;21081112;28;20205;-71
2022/10/25 04:34:16;;;;;;;3.27;1.30;;;14.60;99.90;;;;;;21080802;28;20238;-76
2022/10/25 04:44:18;;;;;;;4.37;1.37;;;14.60;99.90;;;;;;21079946;28;20615;-77
2022/10/25 04:54:19;;;;;;;3.13;1.63;;;14.50;99.90;;;;;;21078946;28;20234;-72
2022/10/25 05:04:21;;;;;;;6.10;1.40;;;14.50;99.90;;;;;;21077292;28;20248;-75
2022/10/25 05:14:23;;;;;;;4.27;1.70;;;14.40;99.90;;;;;;21063955;28;20709;-71
2022/10/25 05:24:25;;;;;;;4.37;1.50;;;14.40;99.90;;;;;;20992929;28;20198;-71
2022/10/25 05:34:26;;;;;;;2.97;1.30;;;14.40;99.90;;;;;;21058278;28;20234;-75
2022/10/25 05:44:28;;;;;;;4.30;1.57;;;14.40;99.90;;;;;;21074548;28;20309;-75
2022/10/25 05:54:30;;;;;;;7.80;1.60;;;14.50;99.90;;;;;;21072389;28;20242;-74
2022/10/25 06:04:33;;;;;;;5.40;1.53;;;14.50;99.90;;;;;;21072869;28;20213;-73
2022/10/25 06:14:35;;;;;;;7.17;1.77;;;14.50;99.90;;;;;;21072798;28;20697;-72
2022/10/25 06:24:37;;;;;;;5.90;1.40;;;14.50;99.90;;;;;;21071574;28;20276;-71
2022/10/25 06:34:39;;;;;;;6.07;1.93;;;14.50;99.90;;;;;;21070512;28;20242;-72
2022/10/25 06:44:40;;;;;;;3.40;1.70;;;14.50;99.90;;;;;;21066381;28;20267;-74
2022/10/25 06:54:45;;;;;;;9.77;1.60;;;14.60;99.90;;;;;;21051888;28;20234;-73
2022/10/25 07:04:46;;;;;;;9.77;1.90;;;14.70;99.90;;;;;;21051948;28;20221;-71
2022/10/25 07:14:48;;;;;;;8.27;2.33;;;14.80;99.90;;;;;;21070903;28;20260;-69
2022/10/25 07:24:50;;;;;;;5.53;1.97;;;15.00;99.90;;;;;;21084872;28;20214;-66
2022/10/25 07:34:51;;;;;;;6.53;2.10;;;15.20;99.90;;;;;;21084315;28;20273;-71
2022/10/25 07:44:53;;;;;;;5.50;1.73;;;15.30;99.90;;;;;;21066113;28;20294;-72
2022/10/25 07:54:55;;;;;;;4.20;1.50;;;15.50;99.90;;;;;;21083977;28;20221;-71
2022/10/25 08:04:56;;;;;;;8.13;1.80;;;15.50;99.90;;;;;;21082093;28;20248;-72
2022/10/25 08:14:58;;;;;;;9.33;1.73;;;15.60;99.90;;;;;;21081346;28;20206;-72
2022/10/25 08:25:01;;;;;;;5.00;1.70;;;15.70;99.90;;;;;;21079323;28;20202;-71
2022/10/25 08:35:03;;;;;;;6.83;2.00;;;15.80;99.90;;;;;;21078225;28;20242;-71
2022/10/25 08:45:28;;;;;;;5.40;1.50;;;16.00;99.90;;;;;;21079609;28;20205;-71
2022/10/25 08:55:39;;;;;;;10.83;3.83;;;16.30;99.90;;;;;;21068682;28;20230;-73
2022/10/25 09:06:22;;;;;;;6.60;1.53;;;16.50;99.90;;;;;;21077354;28;20580;-71
2022/10/25 09:16:33;;;;;;;6.00;1.63;;;16.70;99.90;;;;;;21076617;28;20204;-72
2022/10/25 09:26:58;;;;;;;6.83;2.20;;;17.00;99.90;;;;;;21075947;28;20781;-74
2022/10/25 09:37:15;;;;;;;6.07;2.03;;;17.50;99.90;;;;;;21075077;28;20233;-71
2022/10/25 09:47:24;;;;;;;7.93;1.83;;;17.70;99.60;;;;;;21074196;28;20290;-72
2022/10/25 09:57:26;;;;;;;9.50;1.70;;;17.70;99.30;;;;;;21073244;28;20598;-72
2022/10/25 10:07:34;;;;;;;8.00;1.80;;;17.60;99.00;;;;;;21072197;28;20265;-72
2022/10/25 10:17:36;;;;;;;4.40;1.30;;;17.50;98.70;;;;;;21071322;28;20231;-72
2022/10/25 10:27:40;;;;;;;8.00;1.77;;;17.60;98.60;;;;;;21071990;28;20916;-71
2022/10/25 10:37:42;;;;;;;5.23;1.63;;;17.70;98.60;;;;;;21071098;28;20564;-72
2022/10/25 10:47:50;;;;;;;4.90;1.67;;;17.90;98.30;;;;;;21068213;28;20237;-71
2022/10/25 10:57:54;;;;;;;7.17;1.70;;;18.10;98.10;;;;;;21082202;28;20214;-70
2022/10/25 11:08:19;;;;;;;7.00;1.63;;;18.10;97.20;;;;;;21084453;28;20237;-69
2022/10/25 11:18:44;;;;;;;9.73;1.70;;;18.30;96.90;;;;;;21078814;28;20210;-75
2022/10/25 11:29:11;;;;;;;5.80;1.37;;;18.10;96.90;;;;;;21085121;28;20277;-75
2022/10/25 11:39:31;;;;;;;4.73;1.50;;;18.00;96.70;;;;;;21083279;28;20635;-76
2022/10/25 11:49:51;;;;;;;7.27;1.17;;;17.80;96.40;;;;;;21081512;28;20577;-76
2022/10/25 12:00:09;;;;;;;2.37;1.20;;;17.90;96.10;;;;;;21081426;28;20205;-76
2022/10/25 12:10:32;;;;;;;5.17;1.40;;;18.10;96.00;;;;;;21080409;28;20241;-71
2022/10/25 12:20:35;;;;;;;2.80;1.20;;;18.10;94.80;;;;;;21080547;28;20291;-71
2022/10/25 12:30:39;;;;;;;4.77;1.13;;;18.20;94.20;;;;;;21079097;28;20244;-73
2022/10/25 12:40:46;;;;;;;4.40;1.30;;;18.30;94.40;;;;;;21076601;28;20238;-78
2022/10/25 12:51:06;;;;;;;2.70;0.97;;;18.10;93.40;;;;;;21074378;28;20244;-75
2022/10/25 13:01:43;;;;;;;6.10;1.27;;;18.10;93.10;;;;;;21077600;28;20206;-76
2022/10/25 13:12:00;;;;;;;1.93;1.00;;;18.10;92.90;;;;;;21076712;28;20597;-77
2022/10/25 13:22:11;;;;;;;2.30;0.70;;;18.20;92.50;;;;;;21074897;28;20202;-76
2022/10/25 13:32:21;;;;;;;1.70;0.70;;;18.30;92.00;;;;;;21074936;28;20739;-76
2022/10/25 13:42:26;;;;;;;2.37;1.10;;;18.50;91.20;;;;;;21073633;28;20700;-78
2022/10/25 13:52:31;;;;;;;2.73;1.53;;;18.50;90.60;;;;;;21073400;28;20238;-74
2022/10/25 14:03:04;;;;;;;3.33;1.10;;;18.30;90.40;;;;;;21072813;28;20210;-75
2022/10/25 14:13:23;;;;;;;1.43;0.87;;;18.30;90.60;;;;;;21072469;28;20348;-74
2022/10/25 14:23:29;;;;;;;3.10;1.00;;;18.30;90.60;;;;;;21071867;28;20665;-76
2022/10/25 14:33:52;;;;;;;4.23;1.10;;;18.40;90.30;;;;;;21071665;28;20311;-77
2022/10/25 14:43:54;;;;;;;2.53;1.00;;;18.30;90.60;;;;;;21073695;28;20210;-70
2022/10/25 14:54:02;;;;;;;2.57;1.10;;;18.70;90.60;;;;;;21050509;28;20237;-72
2022/10/25 15:04:03;;;;;;;7.17;3.50;;;18.90;90.50;;;;;;21069099;28;20236;-72
2022/10/25 15:14:19;;;;;;;3.17;1.47;;;18.80;90.90;;;;;;21069243;28;20249;-71
2022/10/25 15:24:23;;;;;;;4.80;1.90;;;18.60;90.80;;;;;;21069811;28;20600;-71
2022/10/25 15:34:25;;;;;;;2.93;1.60;;;18.30;91.20;;;;;;21070836;28;20234;-72
2022/10/25 15:44:27;;;;;;;6.77;1.70;;;18.00;91.80;;;;;;21082423;28;20208;-76
2022/10/25 15:54:28;;;;;;;4.00;1.70;;;17.70;92.40;;;;;;21084150;28;20233;-74
2022/10/25 16:04:30;;;;;;;8.67;1.87;;;17.30;93.00;;;;;;21083016;28;20678;-71
2022/10/25 16:14:33;;;;;;;7.23;3.23;;;17.00;93.60;;;;;;21082029;28;20698;-70
2022/10/25 16:24:35;;;;;;;3.57;2.43;;;16.80;94.20;;;;;;21081987;28;20218;-76
2022/10/25 16:34:37;;;;;;;6.60;2.77;;;16.50;94.70;;;;;;21080963;28;20270;-76
2022/10/25 16:44:38;;;;;;;12.97;2.97;;;16.30;95.20;;;;;;21080689;28;20212;-73
2022/10/25 16:54:40;;;;;;;6.70;4.30;;;16.10;95.70;;;;;;21077940;28;20230;-70
2022/10/25 17:04:42;;;;;;;15.83;8.30;;;15.90;96.30;;;;;;21083946;28;20215;-69
2022/10/25 17:14:44;;;;;;;18.50;8.33;;;15.70;96.60;;;;;;21084576;28;20234;-69
2022/10/25 17:24:45;;;;;;;14.27;7.17;;;15.50;97.10;;;;;;21083606;28;20210;-67
2022/10/25 17:34:47;;;;;;;18.10;7.20;;;15.30;97.50;;;;;;21083524;28;20716;-67
2022/10/25 17:44:48;;;;;;;13.60;8.03;;;15.00;97.80;;;;;;21167034;28;20557;-68
2022/10/25 17:54:50;;;;;;;11.67;7.67;;;15.00;98.10;;;;;;21163914;28;20229;-68
2022/10/25 18:04:52;;;;;;;12.00;7.20;;;14.80;98.40;;;;;;21159821;28;20699;-76
2022/10/25 18:15:13;;;;;;;19.07;9.73;;;14.70;98.60;;;;;;21160378;28;20234;-74
2022/10/25 18:25:15;;;;;;;13.97;8.10;;;14.50;98.90;;;;;;21163550;28;20206;-74
2022/10/25 18:35:17;;;;;;;18.87;10.00;;;14.40;99.40;;;;;;21160522;28;20644;-72
2022/10/25 18:45:19;;;;;;;15.53;8.10;;;14.30;99.70;;;;;;21111989;28;20257;-72
2022/10/25 18:55:25;;;;;;;23.70;9.20;;;14.10;99.40;;;;;;21078037;28;20233;-72
2022/10/25 19:05:28;;;;;;;16.63;9.97;;;14.00;99.90;;;;;;21137355;28;20609;-72
2022/10/25 19:15:30;;;;;;;18.07;10.37;;;13.90;99.90;;;;;;21166463;28;20229;-73
2022/10/25 19:25:32;;;;;;;17.97;8.00;;;13.80;99.90;;;;;;21174844;28;20195;-74
2022/10/25 19:35:34;;;;;;;10.73;7.17;;;13.50;99.90;;;;;;21174846;28;20288;-73
2022/10/25 19:45:40;;;;;;;13.07;7.10;;;13.60;99.90;;;;;;21176745;28;20205;-71
2022/10/25 19:55:42;;;;;;;14.87;6.83;;;13.60;99.90;;;;;;21176294;28;20708;-72
2022/10/25 20:05:44;;;;;;;11.07;6.00;;;13.40;99.90;;;;;;21173953;28;20694;-73
2022/10/25 20:15:50;;;;;;;13.77;7.07;;;13.40;99.90;;;;;;21173232;28;20845;-75
2022/10/25 20:25:52;;;;;;;18.67;7.80;;;13.30;99.90;;;;;;21174279;28;20611;-72
2022/10/25 20:35:53;;;;;;;14.00;7.77;;;13.20;99.90;;;;;;21171394;28;20231;-74
2022/10/25 20:45:55;;;;;;;13.47;8.10;;;13.20;99.90;;;;;;21169358;28;20212;-73
2022/10/25 20:55:57;;;;;;;15.53;8.33;;;13.20;99.90;;;;;;21171298;28;20225;-74
2022/10/25 21:06:02;;;;;;;14.37;8.30;;;13.20;99.90;;;;;;21168843;28;20733;-72
2022/10/25 21:16:10;;;;;;;15.70;8.60;;;13.00;99.90;;;;;;21167407;28;20230;-72
2022/10/25 21:26:11;;;;;;;13.83;7.93;;;12.90;99.90;;;;;;21167320;28;20209;-72
2022/10/25 21:36:14;;;;;;;14.23;8.40;;;12.90;99.90;;;;;;21166294;28;20253;-72
2022/10/25 21:46:19;;;;;;;16.47;7.50;;;12.90;99.90;;;;;;21166158;28;20212;-72
2022/10/25 21:56:28;;;;;;;13.40;6.77;;;12.90;99.90;;;;;;21166884;28;20233;-72
2022/10/25 22:06:32;;;;;;;17.70;6.77;;;12.70;99.90;;;;;;21164763;28;20229;-72
2022/10/25 22:16:34;;;;;;;15.87;6.00;;;12.70;99.90;;;;;;21132023;28;20203;-72
2022/10/25 22:26:38;;;;;;;16.93;5.77;;;12.60;99.90;;;;;;21122377;28;20285;-72
2022/10/25 22:36:41;;;;;;;14.17;5.70;;;12.60;99.90;;;;;;21163502;28;20759;-72
2022/10/25 22:46:42;;;;;;;10.07;5.10;;;12.50;99.90;;;;;;21163023;28;20222;-72
2022/10/25 22:56:44;;;;;;;10.47;5.37;;;12.50;99.90;;;;;;21180211;28;20244;-72
2022/10/25 23:06:46;;;;;;;10.77;5.10;;;12.50;99.90;;;;;;21179085;28;20280;-72
2022/10/25 23:16:47;;;;;;;14.90;4.80;;;12.60;99.90;;;;;;21178219;28;20241;-72
2022/10/25 23:26:49;;;;;;;14.57;4.73;;;12.50;99.90;;;;;;21177843;28;20229;-72
2022/10/25 23:36:51;;;;;;;15.23;4.80;;;12.50;99.90;;;;;;21176469;28;20234;-72
2022/10/25 23:46:52;;;;;;;9.97;4.57;;;12.50;99.90;;;;;;21175689;28;20236;-72
2022/10/25 23:56:54;;;;;;;14.53;4.67;;;12.40;99.90;;;;;;21175386;28;20205;-72
